Time;durP1;ratioP1;P1;durP2;ratioP2;P2;SDS_P1;SDS_P2;PMS_P1;PMS_P2;Temp;Humidity;BMP_temperature;BMP_pressure;BME280_temperature;BME280_humidity;BME280_pressure;Samples;Min_cycle;Max_cycle;Signal;HPM_P1;HPM_P2
2021/12/17 00:07:09;;;;;;;7.07;4.50;;;5.40;99.90;;;3.28;92.69;101282.56;10369768;28;96594;-78
2021/12/17 00:12:20;;;;;;;8.93;4.90;;;5.30;99.90;;;3.48;92.36;101262.03;10365846;28;96514;-79
2021/12/17 00:17:32;;;;;;;5.77;4.00;;;5.50;99.90;;;3.81;91.39;101260.81;10361971;28;96909;-78
2021/12/17 00:50:16;;;;;;;9.23;5.07;;;5.90;99.90;;;3.77;86.33;101264.56;10367352;28;97975;-80
2021/12/17 00:55:22;;;;;;;7.47;4.10;;;5.80;99.90;;;3.70;85.46;101269.38;10393552;28;96494;-80
2021/12/17 01:00:26;;;;;;;9.83;4.73;;;5.70;99.90;;;3.88;83.77;101275.25;10379282;28;96524;-79
2021/12/17 01:05:31;;;;;;;6.90;3.87;;;5.80;99.90;;;3.92;83.19;101252.22;10357251;28;96634;-79
2021/12/17 01:10:40;;;;;;;6.67;4.17;;;5.90;99.90;;;3.89;82.38;101248.00;10375920;28;97690;-79
2021/12/17 01:15:44;;;;;;;6.30;3.77;;;5.90;99.90;;;3.87;81.97;101235.91;10369415;28;96588;-80
2021/12/17 01:37:30;;;;;;;6.83;3.70;;;5.70;99.90;;;3.62;81.07;101234.84;10377783;28;96623;-79
2021/12/17 01:42:18;;;;;;;8.53;5.00;;;5.70;99.90;;;3.39;81.67;101219.69;10376278;28;97104;-80
2021/12/17 01:47:21;;;;;;;6.73;3.23;;;5.50;99.90;;;3.17;82.01;101222.81;10387088;28;96541;-80
2021/12/17 02:02:58;;;;;;;4.80;2.60;;;5.60;99.90;;;3.72;78.98;101249.09;10371134;28;98456;-80
2021/12/17 02:08:03;;;;;;;5.73;3.23;;;5.70;99.90;;;3.73;79.16;101247.31;10355153;28;97043;-80
2021/12/17 02:33:46;;;;;;;6.43;3.50;;;5.70;99.90;;;3.71;77.78;101241.28;10359682;28;96535;-80
2021/12/17 02:38:49;;;;;;;4.90;2.93;;;5.70;99.90;;;3.67;77.77;101237.19;10392908;27;97332;-79
2021/12/17 02:49:15;;;;;;;6.43;3.30;;;5.70;99.90;;;3.56;77.77;101231.78;10380531;28;96578;-78
2021/12/17 02:54:20;;;;;;;9.73;2.90;;;5.60;99.90;;;3.53;77.37;101234.59;10376561;28;96777;-78
2021/12/17 02:59:23;;;;;;;7.17;2.93;;;5.50;99.90;;;3.47;77.04;101231.41;10341040;28;98218;-78
2021/12/17 03:04:29;;;;;;;6.97;2.90;;;5.50;99.90;;;3.41;77.39;101238.81;10357932;28;96565;-78
2021/12/17 03:10:04;;;;;;;6.23;2.93;;;5.50;99.90;;;3.31;77.58;101246.47;10378952;28;96782;-78
2021/12/17 03:25:41;;;;;;;;;;;5.20;99.90;;;3.07;78.03;101217.31;10397001;28;96491;-79
2021/12/17 03:30:45;;;;;;;5.17;2.53;;;5.20;99.90;;;3.02;78.69;101223.78;10377263;28;97003;-78
2021/12/17 03:35:50;;;;;;;6.87;3.07;;;5.10;99.90;;;3.05;78.64;101220.94;10383706;28;96691;-79
2021/12/17 03:41:04;;;;;;;5.73;3.27;;;5.10;99.90;;;3.02;78.91;101214.13;10370114;28;96555;-79
2021/12/17 03:46:07;;;;;;;7.67;3.73;;;5.10;99.90;;;2.99;79.54;101197.69;10346410;28;99809;-79
2021/12/17 03:51:14;;;;;;;10.37;4.37;;;5.10;99.90;;;2.91;79.55;101227.91;10359032;28;96509;-79
2021/12/17 03:56:18;;;;;;;10.90;3.57;;;5.00;99.90;;;2.87;79.39;101247.38;10355539;28;98510;-79
2021/12/17 04:01:21;;;;;;;4.53;2.10;;;5.00;99.90;;;2.88;79.50;101249.09;10355757;28;96496;-78
2021/12/17 04:06:26;;;;;;;4.17;2.33;;;5.00;99.90;;;2.99;79.09;101258.94;10394925;28;96562;-78
2021/12/17 04:11:30;;;;;;;5.53;2.67;;;5.00;99.90;;;2.99;78.49;101255.47;10401780;28;96873;-78
2021/12/17 04:16:35;;;;;;;6.53;2.73;;;5.00;99.90;;;2.98;78.45;101256.41;10384925;28;96558;-79
2021/12/17 04:21:42;;;;;;;7.23;2.60;;;5.00;99.90;;;2.89;78.44;101277.03;10374584;28;96627;-79
2021/12/17 04:26:45;;;;;;;8.93;4.90;;;5.00;99.90;;;2.83;79.38;101272.16;10358267;28;98544;-79
2021/12/17 04:31:53;;;;;;;10.50;5.00;;;5.00;99.90;;;2.75;80.38;101258.63;10367043;28;98361;-79
2021/12/17 04:36:57;;;;;;;8.13;4.13;;;4.90;99.90;;;2.71;80.63;101262.41;10377843;28;96539;-79
2021/12/17 04:42:05;;;;;;;10.00;5.10;;;4.80;99.90;;;2.66;81.36;101267.06;10364062;28;98168;-79
2021/12/17 04:57:39;;;;;;;7.43;3.03;;;4.70;99.90;;;2.63;80.92;101206.88;10394755;28;96605;-79
2021/12/17 05:02:46;;;;;;;6.10;3.37;;;4.70;99.90;;;2.68;80.01;101195.16;10359869;27;96583;-80
2021/12/17 05:07:58;;;;;;;7.60;3.00;;;4.70;99.90;;;2.75;79.34;101193.00;10384173;28;98362;-80
2021/12/17 05:18:29;;;;;;;6.80;2.77;;;4.90;99.90;;;2.87;78.43;101179.13;10389644;28;96709;-77
2021/12/17 05:23:38;;;;;;;7.07;2.57;;;4.90;99.90;;;2.85;78.22;101178.38;10362111;28;96538;-77
2021/12/17 05:28:41;;;;;;;5.30;2.40;;;4.90;99.90;;;2.86;78.35;101195.81;10395810;28;96628;-77
2021/12/17 05:33:44;;;;;;;6.50;2.90;;;4.90;99.90;;;2.82;78.57;101204.84;10382414;28;96967;-78
2021/12/17 05:38:47;;;;;;;6.50;2.50;;;4.90;99.90;;;2.80;78.79;101198.81;10406588;28;96557;-78
2021/12/17 05:43:56;;;;;;;7.13;2.60;;;4.90;99.90;;;2.81;78.86;101203.13;10369408;28;98177;-78
2021/12/17 05:48:59;;;;;;;7.47;3.53;;;4.90;99.90;;;2.82;79.26;101206.59;10371752;28;96871;-77
2021/12/17 05:54:04;;;;;;;5.50;3.10;;;4.90;99.90;;;2.87;78.79;101218.50;10375969;28;97431;-77
2021/12/17 05:59:08;;;;;;;6.20;3.60;;;4.90;99.90;;;2.86;78.80;101214.19;10374991;28;96965;-79
2021/12/17 06:04:12;;;;;;;6.80;3.00;;;4.90;99.90;;;2.85;79.20;101196.78;10374172;28;96865;-78
2021/12/17 06:09:15;;;;;;;9.23;3.53;;;4.90;99.90;;;2.85;79.36;101223.03;10345671;28;96907;-78
2021/12/17 06:14:17;;;;;;;6.20;3.43;;;4.90;99.90;;;2.84;79.45;101223.97;10342109;28;96730;-78
2021/12/17 06:19:20;;;;;;;7.13;3.47;;;4.90;99.90;;;2.82;79.84;101211.84;10384984;28;96652;-78
2021/12/17 06:24:23;;;;;;;8.97;4.17;;;4.80;99.90;;;2.78;80.26;101229.59;10381839;28;96626;-78
2021/12/17 06:29:26;;;;;;;8.70;4.20;;;4.80;99.90;;;2.76;80.31;101239.34;10357618;28;96479;-79
2021/12/17 06:34:29;;;;;;;10.33;3.53;;;4.80;99.90;;;2.74;80.89;101250.84;10349831;28;96595;-77
2021/12/17 06:39:33;;;;;;;8.40;3.80;;;4.80;99.90;;;2.79;80.73;101268.00;10380803;28;96516;-78
2021/12/17 06:44:37;;;;;;;8.70;4.23;;;4.80;99.90;;;2.81;81.04;101258.25;10382761;28;96492;-78
2021/12/17 06:49:49;;;;;;;7.73;3.77;;;4.80;99.90;;;2.91;80.39;101264.66;10381515;28;96598;-78
2021/12/17 07:10:39;;;;;;;;;;;5.00;99.90;;;3.14;79.51;101265.03;10378640;28;96553;-79
2021/12/17 07:32:29;;;;;;;12.90;4.30;;;5.10;99.90;;;3.48;79.01;101301.44;10376701;28;98226;-79
2021/12/17 07:42:10;;;;;;;6.37;3.70;;;5.50;99.90;;;4.23;76.24;101315.06;10397670;28;97188;-79
2021/12/17 07:47:16;;;;;;;6.40;2.50;;;5.70;99.90;;;4.54;75.15;101308.59;10356508;28;96619;-79
2021/12/17 07:52:20;;;;;;;9.40;3.80;;;5.90;99.90;;;4.88;73.92;101331.84;10409146;28;96576;-79
2021/12/17 07:57:23;;;;;;;7.43;3.30;;;6.20;99.90;;;5.13;72.19;101316.06;10377025;28;96618;-79
2021/12/17 08:02:26;;;;;;;6.17;2.60;;;6.30;99.90;;;5.37;71.42;101298.53;10374403;28;96850;-79
2021/12/17 08:07:29;;;;;;;8.17;2.60;;;6.50;99.90;;;5.55;70.34;101303.47;10416929;28;96389;-80
2021/12/17 08:12:32;;;;;;;14.17;5.60;;;6.80;99.90;;;5.75;70.23;101312.59;10396008;28;96585;-79
2021/12/17 08:28:05;;;;;;;5.00;2.60;;;7.30;99.90;;;6.01;67.76;101303.69;10376610;28;96837;-84
2021/12/17 08:33:08;;;;;;;6.50;2.40;;;7.40;99.90;;;6.15;67.54;101311.44;10373089;28;96629;-85
2021/12/17 08:38:12;;;;;;;4.47;2.43;;;7.60;99.90;;;6.27;66.36;101300.94;10367639;28;96410;-83
2021/12/17 08:43:18;;;;;;;6.63;2.20;;;7.70;99.90;;;6.29;65.97;101312.22;10396777;28;96565;-84
2021/12/17 08:48:21;;;;;;;5.50;2.20;;;7.80;99.90;;;6.27;66.16;101311.50;10364151;28;96558;-83
2021/12/17 08:53:24;;;;;;;4.53;2.20;;;7.80;99.90;;;5.87;66.90;101315.19;10387988;28;97882;-82
2021/12/17 08:58:27;;;;;;;13.40;6.47;;;7.60;99.90;;;5.47;68.03;101327.75;10389931;27;98793;-85
2021/12/17 09:03:31;;;;;;;4.53;2.17;;;7.40;99.90;;;5.21;68.99;101316.34;10382328;28;97063;-86
2021/12/17 09:08:34;;;;;;;6.97;2.23;;;7.20;99.90;;;5.18;69.68;101316.59;10403121;28;96371;-86
2021/12/17 09:13:39;;;;;;;4.07;2.10;;;7.10;99.90;;;5.28;69.00;101306.25;10376482;28;96823;-85
2021/12/17 09:18:42;;;;;;;5.70;1.97;;;7.20;99.90;;;5.30;68.63;101297.28;10360125;28;96678;-86
2021/12/17 09:23:46;;;;;;;4.77;1.90;;;7.20;99.90;;;5.26;68.69;101302.88;10383593;28;97834;-85
2021/12/17 09:28:51;;;;;;;4.07;1.73;;;7.20;99.90;;;5.22;68.66;101310.16;10381339;28;96671;-85
2021/12/17 09:33:54;;;;;;;5.90;2.53;;;7.20;99.90;;;5.19;68.93;101293.72;10382412;28;98089;-87
2021/12/17 09:38:57;;;;;;;12.53;6.47;;;7.10;99.90;;;5.17;68.42;101290.34;10365646;28;96571;-83
2021/12/17 09:44:01;;;;;;;3.70;1.90;;;7.10;99.90;;;5.15;69.09;101289.59;10348317;28;96524;-87
2021/12/17 09:49:03;;;;;;;8.07;3.33;;;7.10;99.90;;;5.12;69.40;101293.28;10363617;28;98381;-82
2021/12/17 09:54:06;;;;;;;4.97;2.50;;;7.10;99.90;;;5.15;69.69;101300.13;10376001;28;96756;-82
2021/12/17 09:59:10;;;;;;;3.30;1.77;;;7.10;99.90;;;5.16;69.23;101300.03;10368855;28;96579;-79
2021/12/17 10:04:28;;;;;;;10.73;5.20;;;7.10;99.90;;;5.20;68.96;101296.22;10341965;28;96601;-80
2021/12/17 10:09:34;;;;;;;5.33;2.10;;;7.10;99.90;;;5.26;68.83;101300.22;10382778;28;96731;-82
2021/12/17 10:14:41;;;;;;;3.93;1.83;;;7.20;99.90;;;5.30;68.40;101299.09;10386785;28;96555;-81
2021/12/17 10:19:55;;;;;;;3.23;1.53;;;7.20;99.90;;;5.31;68.58;101300.75;10384391;28;96637;-80
2021/12/17 10:25:02;;;;;;;5.63;2.50;;;7.30;99.90;;;5.34;68.76;101292.66;10364464;28;96672;-80
2021/12/17 10:30:21;;;;;;;4.57;2.10;;;7.30;99.90;;;5.37;68.41;101295.91;10374113;28;96871;-81
2021/12/17 10:35:33;;;;;;;7.13;2.57;;;7.30;99.90;;;5.41;68.18;101271.97;10405017;28;98347;-80
2021/12/17 10:40:39;;;;;;;;;;;7.30;99.80;;;5.46;68.02;101252.25;10391459;27;96674;-81
2021/12/17 10:45:57;;;;;;;4.43;2.30;;;7.40;99.70;;;5.51;68.14;101242.19;10395362;27;96897;-81
2021/12/17 10:51:20;;;;;;;7.53;2.83;;;7.50;99.80;;;5.78;67.69;101246.44;10370627;28;97707;-81
2021/12/17 10:56:26;;;;;;;7.47;2.93;;;7.70;99.90;;;5.85;66.65;101245.03;10373484;28;97924;-80
2021/12/17 11:01:46;;;;;;;7.17;2.63;;;7.70;99.30;;;5.80;66.29;101232.19;10379680;28;96597;-81
2021/12/17 11:07:14;;;;;;;6.40;3.17;;;7.70;98.50;;;5.70;67.18;101243.50;10380455;27;96694;-88
2021/12/17 11:12:29;;;;;;;7.93;2.70;;;7.60;99.00;;;5.64;67.55;101242.19;10361423;28;96645;-89
2021/12/17 11:17:33;;;;;;;4.20;2.57;;;7.50;99.10;;;5.58;67.52;101253.16;10356362;28;96885;-87
2021/12/17 11:22:43;;;;;;;6.17;2.60;;;7.50;99.30;;;5.57;67.95;101256.72;10361659;28;96612;-87
2021/12/17 11:27:48;;;;;;;7.30;2.50;;;7.50;99.50;;;5.55;67.97;101259.47;10380326;28;98203;-87
2021/12/17 11:32:52;;;;;;;7.27;2.80;;;7.50;99.70;;;5.55;67.79;101272.66;10374718;28;96617;-84
2021/12/17 11:38:06;;;;;;;6.43;1.87;;;7.50;99.50;;;5.55;67.53;101263.91;10366786;28;97372;-82
2021/12/17 11:43:38;;;;;;;;;;;7.50;99.30;;;5.56;67.83;101260.31;10360832;28;96605;-83
2021/12/17 11:49:13;;;;;;;4.63;2.10;;;7.50;99.40;;;5.52;67.87;101259.72;10375356;28;97019;-84
2021/12/17 11:54:26;;;;;;;6.27;2.60;;;7.40;99.30;;;5.51;68.05;101263.28;10377082;28;96677;-84
2021/12/17 11:59:29;;;;;;;7.93;2.93;;;7.40;99.70;;;5.53;67.48;101261.41;10402192;28;98623;-83
2021/12/17 12:04:32;;;;;;;4.10;2.43;;;7.50;99.20;;;5.58;68.11;101247.88;10370750;28;96822;-83
2021/12/17 12:10:08;;;;;;;8.43;2.63;;;7.50;99.50;;;5.59;68.08;101263.59;10411306;27;97672;-83
2021/12/17 12:15:23;;;;;;;7.93;3.70;;;7.50;99.40;;;5.60;68.19;101252.09;10392009;28;96528;-82
2021/12/17 12:20:48;;;;;;;7.40;3.10;;;7.60;99.60;;;5.61;67.87;101245.84;10425039;28;96524;-83
2021/12/17 12:26:03;;;;;;;8.13;3.40;;;7.50;99.40;;;5.60;68.25;101252.09;10416730;28;96595;-83
2021/12/17 12:31:06;;;;;;;5.27;2.70;;;7.60;99.60;;;5.58;68.23;101248.72;10432572;28;97532;-83
2021/12/17 12:36:09;;;;;;;5.37;2.43;;;7.50;99.60;;;5.56;67.75;101245.34;10407795;28;97628;-82
2021/12/17 12:41:14;;;;;;;7.63;3.70;;;7.50;99.00;;;5.55;68.18;101243.66;10419247;28;96858;-82
2021/12/17 12:46:56;;;;;;;10.20;3.87;;;7.50;99.40;;;5.55;68.15;101261.28;10414662;28;96583;-83
2021/12/17 12:52:24;;;;;;;11.00;4.83;;;7.50;99.60;;;5.48;68.33;101244.22;10399560;28;96727;-82
2021/12/17 12:57:32;;;;;;;6.27;2.43;;;7.50;99.60;;;5.41;68.18;101257.00;10391389;28;98823;-83
2021/12/17 13:02:35;;;;;;;8.97;3.87;;;7.40;99.50;;;5.30;68.72;101251.63;10378591;28;98058;-84
2021/12/17 13:07:50;;;;;;;5.03;2.20;;;7.30;99.60;;;5.17;68.98;101250.81;10338190;28;96899;-83
2021/12/17 13:13:03;;;;;;;6.70;2.97;;;7.20;99.60;;;5.04;69.42;101248.19;10357188;28;97846;-81
2021/12/17 13:23:57;;;;;;;6.40;2.87;;;6.90;99.90;;;4.75;70.61;101248.41;10359834;28;97925;-81
2021/12/17 13:29:12;;;;;;;7.63;2.50;;;6.80;99.90;;;4.68;71.21;101251.53;10384429;28;97663;-82
2021/12/17 13:34:41;;;;;;;5.20;2.43;;;6.70;99.90;;;4.61;71.53;101252.91;10389111;28;97370;-78
2021/12/17 13:40:03;;;;;;;10.30;7.80;;;6.60;99.90;;;4.50;71.64;101253.66;10405077;28;96630;-78
2021/12/17 13:45:13;;;;;;;10.13;3.80;;;6.50;99.90;;;4.41;71.98;101257.72;10375928;28;96650;-78
2021/12/17 13:50:32;;;;;;;8.40;3.60;;;6.40;99.90;;;4.39;71.83;101262.28;10376039;28;96681;-79
2021/12/17 13:55:44;;;;;;;20.50;9.07;;;6.40;99.90;;;4.29;72.10;101256.75;10389724;28;96587;-78
2021/12/17 14:00:55;;;;;;;17.27;4.40;;;6.30;99.90;;;4.21;72.42;101255.59;10380911;28;96560;-78
2021/12/17 14:06:17;;;;;;;10.85;4.43;;;6.30;99.90;;;4.16;72.56;101244.53;10378989;28;96550;-78
2021/12/17 14:11:28;;;;;;;5.38;2.72;;;6.20;99.90;;;4.09;72.82;101238.00;10399050;28;97615;-78
2021/12/17 14:17:05;;;;;;;7.00;2.60;;;6.20;99.90;;;4.00;73.09;101240.25;10382350;28;96467;-78
2021/12/17 14:22:35;;;;;;;5.27;2.00;;;6.10;99.90;;;3.95;73.27;101231.81;10367434;28;98057;-78
2021/12/17 14:27:44;;;;;;;6.37;2.70;;;6.00;99.90;;;3.90;73.41;101228.66;10400249;28;96639;-78
2021/12/17 14:32:47;;;;;;;9.17;4.50;;;5.90;99.90;;;3.84;73.52;101228.19;10391845;27;96607;-79
2021/12/17 14:37:54;;;;;;;11.30;4.93;;;5.90;99.90;;;3.75;73.72;101230.50;10391703;28;98277;-80
2021/12/17 14:42:58;;;;;;;8.13;5.63;;;5.80;99.90;;;3.72;74.02;101240.38;10357858;28;96817;-78
2021/12/17 14:48:20;;;;;;;8.93;3.50;;;5.80;99.90;;;3.63;74.03;101228.66;10375157;28;96665;-78
2021/12/17 15:04:27;;;;;;;10.83;4.73;;;5.60;99.90;;;3.55;73.95;101209.91;10412778;28;96546;-78
2021/12/17 15:09:39;;;;;;;9.37;3.23;;;5.60;99.90;;;3.59;73.51;101216.63;10379196;28;96793;-79
2021/12/17 15:14:48;;;;;;;9.60;3.83;;;5.60;99.90;;;3.57;73.59;101218.53;10379266;28;96920;-78
2021/12/17 15:19:53;;;;;;;8.40;3.73;;;5.60;99.90;;;3.53;73.55;101230.16;10371559;28;96812;-78
2021/12/17 15:24:55;;;;;;;5.40;2.97;;;5.60;99.90;;;3.45;73.68;101225.41;10391976;28;97274;-78
2021/12/17 15:30:00;;;;;;;7.20;3.80;;;5.50;99.90;;;3.39;74.06;101241.56;10354605;28;96936;-78
2021/12/17 15:35:05;;;;;;;12.00;3.60;;;5.50;99.90;;;3.40;74.13;101248.50;10370179;28;96654;-78
2021/12/17 15:40:10;;;;;;;28.37;12.63;;;5.40;99.90;;;3.39;74.00;101259.94;10380611;28;98533;-78
2021/12/17 15:45:13;;;;;;;14.80;6.27;;;5.40;99.90;;;3.35;73.90;101244.47;10364642;27;96890;-78
2021/12/17 15:50:16;;;;;;;20.63;7.20;;;5.40;99.90;;;3.27;73.85;101238.84;10399936;28;96879;-78
2021/12/17 15:55:23;;;;;;;18.03;5.30;;;5.30;99.90;;;3.23;74.05;101238.19;10369365;28;96771;-77
2021/12/17 16:00:33;;;;;;;38.93;9.73;;;5.30;99.90;;;3.22;73.95;101242.59;10354199;28;97002;-78
2021/12/17 16:05:37;;;;;;;18.00;7.23;;;5.30;99.90;;;3.21;73.82;101254.06;10393574;28;96560;-78
2021/12/17 16:21:13;;;;;;;14.05;6.50;;;5.20;99.90;;;3.18;74.12;101249.00;10367710;28;96641;-79
2021/12/17 16:26:20;;;;;;;8.53;4.70;;;5.20;99.90;;;3.22;74.03;101247.00;10354497;28;96816;-78
2021/12/17 16:31:29;;;;;;;7.63;2.90;;;5.30;99.90;;;3.28;73.63;101237.91;10379424;28;96663;-79
2021/12/17 16:36:35;;;;;;;11.07;3.33;;;5.30;99.90;;;3.32;73.21;101237.63;10388813;28;96515;-80
2021/12/17 16:41:39;;;;;;;11.77;3.80;;;5.30;99.90;;;3.30;73.48;101249.16;10370063;28;96526;-79
2021/12/17 16:51:50;;;;;;;8.47;3.33;;;5.30;99.90;;;3.27;73.33;101241.47;10362745;28;97012;-77
2021/12/17 16:56:53;;;;;;;9.13;4.37;;;5.30;99.90;;;3.22;72.82;101232.09;10370149;28;96662;-77
2021/12/17 17:01:56;;;;;;;46.40;20.90;;;5.30;99.90;;;3.19;73.28;101229.69;10389258;28;98265;-78
2021/12/17 17:06:59;;;;;;;12.17;4.57;;;5.30;99.90;;;3.21;73.13;101226.94;10354194;28;96858;-79
2021/12/17 17:12:05;;;;;;;9.77;3.67;;;5.20;99.90;;;3.15;73.01;101216.81;10397730;28;97002;-79
2021/12/17 17:17:08;;;;;;;7.77;3.40;;;5.20;99.90;;;3.11;73.54;101218.78;10402880;28;96521;-78
2021/12/17 17:22:15;;;;;;;11.27;3.97;;;5.10;99.90;;;3.10;73.40;101197.88;10385185;28;97178;-77
2021/12/17 17:27:18;;;;;;;8.50;3.67;;;5.10;99.90;;;3.11;73.41;101179.38;10371537;28;98948;-78
2021/12/17 17:32:21;;;;;;;6.30;3.27;;;5.10;99.90;;;3.12;73.48;101195.97;10372615;28;97062;-80
2021/12/17 17:37:28;;;;;;;7.17;3.33;;;5.10;99.90;;;3.09;73.38;101214.56;10394566;28;96600;-80
2021/12/17 17:42:32;;;;;;;7.10;3.23;;;5.10;99.90;;;3.08;73.39;101218.16;10380761;28;96562;-80
2021/12/17 17:47:35;;;;;;;9.43;3.40;;;5.10;99.90;;;3.04;73.49;101235.88;10390342;28;98099;-78
2021/12/17 17:52:38;;;;;;;10.00;3.50;;;5.00;99.90;;;2.99;73.46;101237.91;10373674;28;96976;-80
2021/12/17 17:57:41;;;;;;;11.27;3.20;;;5.00;99.90;;;2.92;73.58;101236.63;10371654;28;96564;-80
2021/12/17 18:02:45;;;;;;;8.13;3.47;;;5.00;99.90;;;2.88;73.79;101228.09;10378608;28;96657;-80
2021/12/17 18:07:49;;;;;;;9.77;4.07;;;5.00;99.90;;;2.88;73.66;101216.75;10368155;28;96907;-80
2021/12/17 18:12:55;;;;;;;6.67;3.10;;;4.90;99.90;;;2.88;73.56;101222.84;10376557;28;96606;-80
2021/12/17 18:17:58;;;;;;;7.50;3.00;;;4.90;99.90;;;2.80;73.19;101217.19;10371137;28;96670;-80
2021/12/17 18:23:04;;;;;;;9.03;3.87;;;4.90;99.90;;;2.77;73.48;101214.78;10389482;28;96643;-80
2021/12/17 18:28:08;;;;;;;12.77;4.63;;;4.80;99.90;;;2.71;73.34;101215.16;10408787;28;96736;-80
2021/12/17 18:33:11;;;;;;;6.63;3.90;;;4.80;99.90;;;2.68;72.83;101218.78;10387340;28;96559;-80
2021/12/17 18:38:15;;;;;;;7.03;3.90;;;4.80;99.90;;;2.69;72.78;101232.75;10363662;28;96576;-80
2021/12/17 18:48:39;;;;;;;13.10;5.05;;;4.70;99.90;;;2.62;72.37;101234.06;10387406;28;96664;-80
2021/12/17 18:53:43;;;;;;;8.17;3.83;;;4.70;99.90;;;2.60;72.56;101233.31;10399936;28;96563;-79
2021/12/17 18:58:46;;;;;;;9.57;4.27;;;4.70;99.90;;;2.64;72.18;101222.56;10369564;28;96978;-80
2021/12/17 19:03:49;;;;;;;8.90;3.70;;;4.70;99.90;;;2.80;70.69;101224.22;10392649;28;96635;-79
2021/12/17 19:08:53;;;;;;;13.17;4.53;;;4.80;99.90;;;2.90;70.02;101231.47;10367307;28;96602;-79
2021/12/17 19:13:56;;;;;;;10.20;4.63;;;4.90;99.90;;;2.95;69.37;101239.06;10369095;28;97890;-79
2021/12/17 19:24:06;;;;;;;8.23;3.90;;;5.00;99.90;;;2.85;70.09;101244.03;10383403;28;96950;-79
2021/12/17 19:29:11;;;;;;;10.07;4.17;;;4.90;99.90;;;2.77;70.09;101240.19;10379159;28;96681;-79
2021/12/17 19:34:14;;;;;;;10.67;3.60;;;4.90;99.90;;;2.76;69.90;101248.97;10372476;28;96987;-79
2021/12/17 19:39:18;;;;;;;8.57;3.67;;;4.80;99.90;;;2.71;70.12;101257.16;10388037;28;96558;-80
2021/12/17 19:44:21;;;;;;;6.93;3.97;;;4.80;99.90;;;2.60;70.32;101249.06;10378414;28;96866;-79
2021/12/17 19:54:27;;;;;;;7.47;3.93;;;4.70;99.90;;;2.59;69.86;101242.97;10393401;28;96694;-81
2021/12/17 19:59:30;;;;;;;9.57;3.53;;;4.70;99.90;;;2.60;69.47;101247.28;10364062;28;97069;-79
2021/12/17 20:04:37;;;;;;;7.30;3.30;;;4.70;99.90;;;2.63;69.27;101239.19;10372936;28;97691;-79
2021/12/17 20:09:41;;;;;;;10.10;4.60;;;4.70;99.30;;;2.68;69.13;101238.94;10368383;28;96779;-79
2021/12/17 20:14:46;;;;;;;11.60;4.87;;;4.70;99.90;;;2.62;69.72;101232.28;10373156;28;96678;-79
2021/12/17 20:19:49;;;;;;;8.50;4.43;;;4.70;99.90;;;2.53;70.33;101240.72;10345057;28;96842;-78
2021/12/17 20:24:52;;;;;;;7.83;3.83;;;4.60;99.90;;;2.45;70.60;101236.84;10362272;28;97995;-78
2021/12/17 20:29:55;;;;;;;10.13;4.23;;;4.60;99.90;;;2.47;70.06;101224.50;10356980;28;97359;-78
2021/12/17 20:34:58;;;;;;;9.27;4.30;;;4.60;99.90;;;2.51;70.31;101233.84;10375272;28;96594;-78
2021/12/17 20:40:04;;;;;;;10.63;4.70;;;4.60;99.90;;;2.54;70.02;101244.19;10369460;28;98360;-78
2021/12/17 20:45:10;;;;;;;12.80;5.33;;;4.60;99.90;;;2.54;69.94;101254.66;10393298;28;98446;-78
2021/12/17 20:50:13;;;;;;;16.07;6.57;;;4.60;99.90;;;2.60;69.53;101251.69;10366249;28;98442;-78
2021/12/17 20:55:18;;;;;;;9.03;5.33;;;4.60;99.90;;;2.63;69.26;101257.56;10378954;28;96594;-78
2021/12/17 21:00:28;;;;;;;11.47;6.07;;;4.70;99.90;;;2.56;69.37;101258.03;10355149;28;96480;-78
2021/12/17 21:05:32;;;;;;;14.03;5.30;;;4.60;99.90;;;2.47;70.01;101254.19;10402141;28;96633;-78
2021/12/17 21:10:40;;;;;;;16.43;6.23;;;4.60;99.70;;;2.42;69.73;101251.84;10352801;28;96726;-78
2021/12/17 21:15:48;;;;;;;22.33;6.43;;;4.50;99.90;;;2.38;69.83;101266.06;10353766;28;96769;-77
2021/12/17 21:20:53;;;;;;;13.47;5.50;;;4.40;99.90;;;2.44;69.65;101245.63;10348557;28;97062;-77
2021/12/17 21:25:57;;;;;;;13.77;4.20;;;4.50;99.60;;;2.47;69.78;101255.97;10366848;28;96685;-78
2021/12/17 21:31:00;;;;;;;8.83;3.73;;;4.50;99.60;;;2.51;69.45;101263.56;10359325;28;98009;-80
2021/12/17 21:36:14;;;;;;;9.40;3.60;;;4.60;99.80;;;2.54;69.29;101254.66;10382019;28;97233;-80
2021/12/17 21:41:19;;;;;;;9.57;4.67;;;4.60;99.90;;;2.54;69.44;101250.25;10374238;28;97277;-78
2021/12/17 21:46:24;;;;;;;7.60;3.57;;;4.60;99.70;;;2.51;69.72;101249.59;10375400;28;96551;-78
2021/12/17 21:51:27;;;;;;;7.20;2.73;;;4.60;99.80;;;2.55;69.78;101249.31;10367403;28;96550;-77
2021/12/17 21:56:30;;;;;;;7.43;2.90;;;4.60;99.80;;;2.55;69.62;101232.75;10385829;28;96679;-77
2021/12/17 22:01:33;;;;;;;7.33;3.60;;;4.50;99.80;;;2.55;70.31;101224.88;10388384;28;96648;-78
2021/12/17 22:06:36;;;;;;;9.40;3.97;;;4.60;99.90;;;2.55;69.77;101225.72;10366552;28;96730;-78
2021/12/17 22:11:39;;;;;;;8.17;3.33;;;4.60;99.90;;;2.57;69.80;101223.81;10371819;28;96566;-78
2021/12/17 22:16:43;;;;;;;7.93;3.00;;;4.60;99.90;;;2.57;69.81;101222.97;10365152;28;96570;-77
2021/12/17 22:21:52;;;;;;;7.37;3.33;;;4.60;99.90;;;2.52;70.38;101230.28;10375930;28;96575;-78
2021/12/17 22:26:55;;;;;;;7.73;3.20;;;4.50;99.90;;;2.51;70.38;101237.31;10375534;28;96654;-78
2021/12/17 22:32:00;;;;;;;6.37;3.20;;;4.60;99.90;;;2.48;70.48;101241.91;10383019;28;96527;-77
2021/12/17 22:37:04;;;;;;;5.63;2.93;;;4.50;99.90;;;2.46;70.79;101230.66;10388398;28;96556;-78
2021/12/17 22:42:08;;;;;;;7.40;3.10;;;4.50;99.90;;;2.47;70.67;101229.75;10391327;28;96503;-78
2021/12/17 22:47:11;;;;;;;7.07;3.37;;;4.50;99.90;;;2.49;70.84;101238.34;10379190;28;96600;-78
2021/12/17 22:52:14;;;;;;;6.80;3.60;;;4.50;99.90;;;2.48;71.53;101231.41;10389309;28;96552;-77
2021/12/17 22:57:17;;;;;;;9.20;3.67;;;4.50;99.90;;;2.45;71.50;101242.06;10406856;27;96727;-78
2021/12/17 23:02:20;;;;;;;7.00;3.67;;;4.40;99.90;;;2.37;72.11;101253.88;10369623;28;97622;-78
2021/12/17 23:07:31;;;;;;;9.17;2.97;;;4.40;99.90;;;2.36;72.35;101254.81;10389853;28;96691;-78
2021/12/17 23:12:33;;;;;;;7.50;3.17;;;4.40;99.90;;;2.28;72.70;101243.94;10380263;28;96602;-78
2021/12/17 23:17:36;;;;;;;8.13;3.60;;;4.30;99.90;;;2.25;72.86;101249.34;10395959;28;96705;-77
2021/12/17 23:22:39;;;;;;;7.83;3.30;;;4.30;99.90;;;2.22;72.87;101244.28;10398562;28;96588;-77
2021/12/17 23:27:43;;;;;;;7.47;3.50;;;4.20;99.90;;;2.22;73.30;101257.41;10371803;28;97108;-77
2021/12/17 23:32:52;;;;;;;10.23;4.00;;;4.20;99.90;;;2.22;72.87;101254.78;10369961;28;96591;-77
2021/12/17 23:37:55;;;;;;;6.47;3.10;;;4.30;99.90;;;2.17;73.36;101269.94;10376714;28;97905;-78
2021/12/17 23:42:59;;;;;;;8.30;3.10;;;4.20;99.90;;;2.11;73.49;101276.38;10377731;28;98601;-77
2021/12/17 23:48:02;;;;;;;11.27;4.20;;;4.20;99.90;;;2.07;73.61;101266.13;10360551;28;96585;-77
2021/12/17 23:53:05;;;;;;;5.80;2.73;;;4.10;99.90;;;2.02;73.87;101269.00;10397557;28;96482;-77
2021/12/17 23:58:09;;;;;;;6.70;3.70;;;4.10;99.90;;;2.02;73.85;101260.31;10408304;28;98136;-77
